Flight Track Log - Related Links

Times and Time Zones

All times are in EDT time to prevent confusion due to time zone crossing. See the DAL1903 flight status page for this flight to view local times or setup timezone preferences in your user account.

Time Position Orientation Groundspeed Altitude Reporting Facility
EDT Latitude Longitude Course Direction KTS MPH feet Rate Location/Type
Sun 11:14:11 AM 40.7667 -73.7833 246° West 224 258 3,000  Level New York TRACON
Sun 11:15:06 AM 40.8167 -73.7500 27° Northeast 277 319 5,700 2,974 Climbing New York TRACON
Sun 11:16:06 AM 40.8500 -73.8167 303° West 256 295 8,700 2,950 Climbing New York TRACON
Sun 11:17:06 AM 40.8333 -73.9167 258° West 259 298 11,600 2,012 Climbing New York TRACON
Sun 11:18:53 AM 40.7956 -74.1097 256° West 323 372 14,300 1,186 Climbing New York Center
Sun 11:19:00 AM 40.5522 -74.5101 246° West  Level FlightAware Approximate
Sun 11:19:53 AM 40.7553 -74.2092 242° Southwest 342 394 14,900  Level New York Center
Sun 11:20:54 AM 40.7061 -74.3244 241° Southwest 348 400 15,600 1,525 Climbing New York Center
Sun 11:21:55 AM 40.6547 -74.4392 239° Southwest 361 415 18,000 2,186 Climbing New York Center
Sun 11:22:52 AM 40.6150 -74.5683 248° West 372 428 19,900 2,051 Climbing New York Center
Sun 11:23:52 AM 40.5817 -74.7003 252° West 383 441 22,000 1,934 Climbing New York Center
Sun 11:24:53 AM 40.5519 -74.8381 254° West 388 447 23,800 1,623 Climbing New York Center
Sun 11:25:54 AM 40.5156 -74.9806 251° West 400 460 25,300 1,686 Climbing New York Center
Sun 11:26:54 AM 40.4650 -75.1139 244° Southwest 405 466 27,200 1,934 Climbing New York Center
Sun 11:27:55 AM 40.4122 -75.2414 242° Southwest 410 472 29,200 1,881 Climbing New York Center
Sun 11:28:52 AM 40.3369 -75.3564 229° Southwest 404 465 30,900 1,424 Climbing New York Center
Sun 11:29:53 AM 40.2542 -75.4514 221° Southwest 409 471 32,000 694 Climbing New York Center
Sun 11:30:53 AM 40.1753 -75.5494 224° Southwest 404 465 32,300 744 Climbing New York Center
Sun 11:31:54 AM 40.0853 -75.6544 222° Southwest 399 459 33,500 843 Climbing New York Center
Sun 11:32:54 AM 40.0064 -75.7492 223° Southwest 399 459 34,000 152 Climbing New York Center
Sun 11:35:11 AM 39.8275 -75.9644 223° Southwest 398 458 34,000  Level Washington Center
Sun 11:36:11 AM 39.7461 -76.0583 222° Southwest 398 458 34,000  Level Washington Center
Sun 11:37:11 AM 39.6664 -76.1522 222° Southwest 398 458 34,000  Level Washington Center
Sun 11:38:11 AM 39.5869 -76.2486 223° Southwest 398 458 34,000  Level Washington Center
Sun 11:39:11 AM 39.5050 -76.3419 221° Southwest 398 458 34,000  Level Washington Center
Sun 11:40:11 AM 39.4294 -76.4406 225° Southwest 392 451 34,000  Level Washington Center
Sun 11:41:11 AM 39.3556 -76.5578 231° Southwest 387 445 34,000  Level Washington Center
Sun 11:42:11 AM 39.2797 -76.6561 225° Southwest 387 445 34,000  Level Washington Center
Sun 11:43:11 AM 39.1975 -76.7433 219° Southwest 387 445 34,000  Level Washington Center
Sun 11:44:11 AM 39.1133 -76.8328 220° Southwest 393 452 34,000  Level Washington Center
Sun 11:45:11 AM 39.0311 -76.9197 219° Southwest 388 447 34,000  Level Washington Center
Sun 11:46:11 AM 38.9489 -77.0089 220° Southwest 388 447 34,000  Level Washington Center
Sun 11:47:11 AM 38.8664 -77.0981 220° Southwest 388 447 34,000  Level Washington Center
Sun 11:48:11 AM 38.7839 -77.1842 219° Southwest 388 447 34,000  Level Washington Center
Sun 11:49:11 AM 38.6994 -77.2728 219° Southwest 388 447 34,000  Level Washington Center
Sun 11:50:11 AM 38.6167 -77.3639 221° Southwest 388 447 34,000  Level Washington Center
Sun 11:51:11 AM 38.5322 -77.4494 218° Southwest 388 447 34,000  Level Washington Center
Sun 11:52:11 AM 38.4494 -77.5403 221° Southwest 388 447 34,000  Level Washington Center
Sun 11:53:11 AM 38.3644 -77.6281 219° Southwest 388 447 34,000  Level Washington Center
Sun 11:54:11 AM 38.2797 -77.7158 219° Southwest 388 447 34,000  Level Washington Center
Sun 11:55:11 AM 38.1967 -77.8006 219° Southwest 388 447 34,000  Level Washington Center
Sun 11:56:11 AM 38.1136 -77.8906 220° Southwest 388 447 34,000  Level Washington Center
Sun 11:57:11 AM 38.0306 -77.9775 220° Southwest 388 447 34,000  Level Washington Center
Sun 11:58:11 AM 37.9561 -78.0569 220° Southwest 388 447 34,000  Level Washington Center
Sun 11:59:11 AM 37.8731 -78.1436 219° Southwest 388 447 34,000  Level Washington Center
Sun 12:00:11 PM 37.7939 -78.2303 221° Southwest 383 441 34,000  Level Washington Center
Sun 12:01:11 PM 37.7086 -78.3164 219° Southwest 383 441 34,000  Level Washington Center
Sun 12:02:11 PM 37.6253 -78.4028 219° Southwest 383 441 34,000 450 Level Washington Center
Sun 12:03:11 PM 37.5311 -78.4961 218° Southwest 388 447 34,900 800 Climbing Washington Center
Sun 12:04:11 PM 37.4456 -78.5844 219° Southwest 388 447 35,600 550 Climbing Washington Center
Sun 12:05:11 PM 37.3619 -78.6700 219° Southwest 388 447 36,000 200 Climbing Washington Center
Sun 12:06:11 PM 37.2786 -78.7528 218° Southwest 388 447 36,000  Level Washington Center
Sun 12:07:11 PM 37.1928 -78.8406 219° Southwest 388 447 36,000  Level Washington Center
Sun 12:08:11 PM 37.1175 -78.9181 219° Southwest 388 447 36,000  Level Washington Center
Sun 12:09:11 PM 37.0317 -79.0028 218° Southwest 388 447 36,000  Level Washington Center
Sun 12:10:11 PM 36.9458 -79.0872 218° Southwest 388 447 36,000  Level Washington Center
Sun 12:11:11 PM 36.8619 -79.1717 219° Southwest 388 447 36,000  Level Washington Center
Sun 12:12:11 PM 36.7761 -79.2561 218° Southwest 388 447 36,000  Level Washington Center
Sun 12:13:11 PM 36.6814 -79.3500 218° Southwest 393 452 36,000  Level Washington Center
Sun 12:14:11 PM 36.5972 -79.4339 219° Southwest 393 452 36,000  Level Washington Center
Sun 12:15:11 PM 36.5111 -79.5175 218° Southwest 393 452 36,000  Level Washington Center
Sun 12:17:18 PM 36.3297 -79.6961 218° Southwest 400 460 36,000  Level Atlanta Center
Sun 12:18:18 PM 36.2450 -79.7781 218° Southwest 400 460 36,000  Level Atlanta Center
Sun 12:19:18 PM 36.1603 -79.8622 219° Southwest 400 460 36,000  Level Atlanta Center
Sun 12:20:18 PM 36.0756 -79.9436 218° Southwest 400 460 36,000  Level Atlanta Center
Sun 12:21:18 PM 35.9897 -80.0019 209° Southwest 400 460 36,000  Level Atlanta Center
Sun 12:22:18 PM 35.8850 -80.0533 202° Southwest 400 460 36,000  Level Atlanta Center
Sun 12:23:18 PM 35.7825 -80.1044 202° Southwest 400 460 36,000  Level Atlanta Center
Sun 12:24:18 PM 35.6778 -80.1556 202° Southwest 400 460 36,000  Level Atlanta Center
Sun 12:25:18 PM 35.5750 -80.2089 203° Southwest 410 472 36,000  Level Atlanta Center
Sun 12:26:18 PM 35.4722 -80.2594 202° Southwest 405 466 36,000  Level Atlanta Center
Sun 12:27:18 PM 35.3550 -80.3158 201° Southwest 410 472 36,000  Level Atlanta Center
Sun 12:28:18 PM 35.2503 -80.3664 202° Southwest 410 472 36,000  Level Atlanta Center
Sun 12:29:19 PM 35.1475 -80.4192 203° Southwest 405 466 36,000  Level Atlanta Center
Sun 12:30:18 PM 35.0447 -80.4719 203° Southwest 410 472 36,000  Level Atlanta Center
Sun 12:33:28 PM 34.7300 -80.6292 202° Southwest 391 450 36,000  Level Jacksonville Center
Sun 12:34:28 PM 34.6267 -80.6822 203° Southwest 398 458 36,000  Level Jacksonville Center
Sun 12:35:28 PM 34.5128 -80.7433 204° Southwest 428 493 36,000  Level Jacksonville Center
Sun 12:36:28 PM 34.4094 -80.7961 203° Southwest 421 484 36,000  Level Jacksonville Center
Sun 12:37:28 PM 34.3058 -80.8389 199° South 401 461 36,000  Level Jacksonville Center
Sun 12:38:28 PM 34.2067 -80.8914 204° Southwest 396 456 36,000  Level Jacksonville Center
Sun 12:39:28 PM 34.1031 -80.9414 202° Southwest 396 456 36,000  Level Jacksonville Center
Sun 12:40:28 PM 33.9972 -80.9914 201° Southwest 396 456 36,000  Level Jacksonville Center
Sun 12:41:28 PM 33.8894 -81.0386 200° South 401 461 36,000  Level Jacksonville Center
Sun 12:42:28 PM 33.7861 -81.0908 203° Southwest 408 470 36,000  Level Jacksonville Center
Sun 12:43:28 PM 33.6803 -81.1481 204° Southwest 413 475 36,000  Level Jacksonville Center
Sun 12:44:28 PM 33.5767 -81.1972 202° Southwest 413 475 36,000  Level Jacksonville Center
Sun 12:45:28 PM 33.4708 -81.2517 203° Southwest 413 475 36,000  Level Jacksonville Center
Sun 12:46:28 PM 33.3672 -81.3033 203° Southwest 413 475 36,000 -50 Level Jacksonville Center
Sun 12:47:28 PM 33.2594 -81.3550 202° Southwest 413 475 35,900  Descending Jacksonville Center
Sun 12:48:28 PM 33.1556 -81.4039 202° Southwest 413 475 36,000 50 Climbing Jacksonville Center
Sun 12:49:28 PM 33.0497 -81.4528 201° Southwest 413 475 36,000  Level Jacksonville Center
Sun 12:50:28 PM 32.9458 -81.5064 203° Southwest 413 475 36,000  Level Jacksonville Center
Sun 12:51:28 PM 32.8400 -81.5550 201° Southwest 413 475 36,000  Level Jacksonville Center
Sun 12:52:28 PM 32.7361 -81.6058 202° Southwest 413 475 36,000  Level Jacksonville Center
Sun 12:53:28 PM 32.6239 -81.6617 203° Southwest 407 468 36,000  Level Jacksonville Center
Sun 12:54:28 PM 32.5222 -81.7100 202° Southwest 407 468 36,000  Level Jacksonville Center
Sun 12:55:28 PM 32.4244 -81.7556 201° Southwest 412 474 36,000  Level Jacksonville Center
Sun 12:56:28 PM 32.3081 -81.8111 202° Southwest 412 474 36,000  Level Jacksonville Center
Sun 12:57:28 PM 32.1997 -81.8492 197° South 412 474 36,000  Level Jacksonville Center
Sun 12:58:28 PM 32.0853 -81.8675 188° South 417 480 36,000  Level Jacksonville Center
Sun 12:59:28 PM 31.9706 -81.8883 189° South 417 480 36,000  Level Jacksonville Center
Sun 01:00:28 PM 31.8661 -81.9042 187° South 428 493 36,000  Level Jacksonville Center
Sun 01:01:28 PM 31.7392 -81.9275 189° South 428 493 36,000  Level Jacksonville Center
Sun 01:02:28 PM 31.6244 -81.9458 188° South 428 493 36,000  Level Jacksonville Center
Sun 01:03:28 PM 31.5200 -81.9639 188° South 428 493 36,000  Level Jacksonville Center
Sun 01:04:28 PM 31.3886 -81.9872 189° South 428 493 36,000  Level Jacksonville Center
Sun 01:05:28 PM 31.2844 -82.0078 190° South 428 493 36,000  Level Jacksonville Center
Sun 01:06:28 PM 31.1678 -82.0258 188° South 428 493 36,000  Level Jacksonville Center
Sun 01:07:28 PM 31.0508 -82.0464 189° South 428 493 36,000  Level Jacksonville Center
Sun 01:08:28 PM 30.9342 -82.0642 187° South 428 493 36,000  Level Jacksonville Center
Sun 01:09:28 PM 30.8172 -82.0822 188° South 428 493 36,000  Level Jacksonville Center
Sun 01:10:28 PM 30.6983 -82.1025 188° South 428 493 36,000  Level Jacksonville Center
Sun 01:11:28 PM 30.5836 -82.1228 189° South 428 493 36,000  Level Jacksonville Center
Sun 01:12:28 PM 30.4669 -82.1383 187° South 423 487 36,000  Level Jacksonville Center
Sun 01:13:28 PM 30.3500 -82.1583 188° South 428 493 36,000 -550 Level Jacksonville Center
Sun 01:14:28 PM 30.2228 -82.1811 189° South 421 484 34,900 -650 Descending Jacksonville Center
Sun 01:15:28 PM 30.1081 -82.1986 188° South 426 490 34,700 -1,050 Descending Jacksonville Center
Sun 01:16:28 PM 30.0039 -82.2186 189° South 426 490 32,800 -2,500 Descending Jacksonville Center
Sun 01:17:28 PM 29.8892 -82.2386 189° South 426 490 29,700 -2,750 Descending Jacksonville Center
Sun 01:18:28 PM 29.7556 -82.2611 188° South 433 498 27,300 -1,350 Descending Jacksonville Center
Sun 01:19:28 PM 29.6386 -82.2642 181° South 433 498 27,000 -250 Descending Jacksonville Center
Sun 01:20:28 PM 29.5194 -82.2458 172° South 428 493 26,800 -700 Descending Jacksonville Center
Sun 01:21:28 PM 29.4047 -82.2250 171° South 428 493 25,600 -1,100 Descending Jacksonville Center
Sun 01:22:28 PM 29.2897 -82.2092 173° South 423 487 24,600 -800 Descending Jacksonville Center
Sun 01:23:28 PM 29.1769 -82.1911 172° South 423 487 24,000 -1,050 Descending Jacksonville Center
Sun 01:24:28 PM 29.0683 -82.1750 173° South 411 473 22,500 -2,250 Descending Jacksonville Center
Sun 01:25:28 PM 28.9639 -82.1617 174° South 400 460 19,500 -2,650 Descending Jacksonville Center
Sun 01:26:28 PM 28.8678 -82.1481 173° South 390 449 17,200 -2,267 Descending Jacksonville Center
Sun 01:28:20 PM 28.6667 -82.1167 172° South 364 419 13,000 -1,535 Descending Tampa TRACON
Sun 01:29:20 PM 28.5667 -82.1000 172° South 360 414 12,800 -476 Descending Tampa TRACON
Sun 01:30:26 PM 28.4667 -82.1500 204° Southwest 353 406 12,000 -381 Descending Tampa TRACON
Sun 01:31:26 PM 28.4000 -82.2167 221° Southwest 353 406 12,000  Level Tampa TRACON
Sun 01:32:20 PM 28.3167 -82.2833 215° Southwest 352 405 12,000  Level Tampa TRACON
Sun 01:33:20 PM 28.2333 -82.3000 190° South 348 400 12,000 -300 Level Tampa TRACON
Sun 01:34:20 PM 28.1333 -82.2833 172° South 336 387 11,400 -850 Descending Tampa TRACON
Sun 01:35:20 PM 28.0500 -82.2667 170° South 296 341 10,300 -1,476 Descending Tampa TRACON
Sun 01:36:26 PM 27.9667 -82.2500 170° South 289 333 8,300 -1,667 Descending Tampa TRACON
Sun 01:37:26 PM 27.8833 -82.2500 180° South 282 325 6,800 -1,278 Descending Tampa TRACON
Sun 01:38:14 PM 27.8333 -82.2333 164° South 268 308 6,000 -397 Descending Tampa TRACON
Sun 01:39:27 PM 27.7500 -82.2667 199° South 271 312 6,000  Level Tampa TRACON
Sun 01:40:26 PM 27.6833 -82.3167 214° Southwest 275 316 6,000 -316 Level Tampa TRACON
Sun 01:41:21 PM 27.6500 -82.3667 233° Southwest 276 318 5,400 -1,096 Descending Tampa TRACON
Sun 01:42:21 PM 27.6000 -82.4333 230° Southwest 271 312 3,900 -1,300 Descending Tampa TRACON
Sun 01:43:21 PM 27.5500 -82.5167 236° Southwest 270 311 2,800 -900 Descending Tampa TRACON
Sun 01:44:21 PM 27.5167 -82.5833 241° Southwest 257 296 2,100 -619 Descending Tampa TRACON
Sun 01:45:27 PM 27.4667 -82.6167 211° Southwest 189 217 1,500 -619 Descending Tampa TRACON
Sun 01:46:27 PM 27.4333 -82.6000 156° South 132 152 800 -700 Descending Tampa TRACON
Sun 01:48:00 PM 27.3954 -82.5544 160° South  Level Estimated
Sun 01:55:00 PM 27.3954 -82.5544 160° South  Level Estimated

Login

Don't have an account? Register now (free) for customized features, flight alerts, and more!